sensor_id;sensor_type;location;lat;lon;timestamp;pressure;altitude;pressure_sealevel;temperature;humidity
25759;BME280;13604;52.496;13.456;2023-06-14T00:00:50;101389.81;;;12.26;78.00
25759;BME280;13604;52.496;13.456;2023-06-14T00:03:17;101369.31;;;12.15;78.34
25759;BME280;13604;52.496;13.456;2023-06-14T00:05:43;101382.72;;;12.23;78.55
25759;BME280;13604;52.496;13.456;2023-06-14T00:08:12;101381.75;;;12.21;78.69
25759;BME280;13604;52.496;13.456;2023-06-14T00:10:37;101388.94;;;12.25;78.77
25759;BME280;13604;52.496;13.456;2023-06-14T00:13:03;101384.44;;;12.23;79.53
25759;BME280;13604;52.496;13.456;2023-06-14T00:15:29;101360.13;;;12.06;80.19
25759;BME280;13604;52.496;13.456;2023-06-14T00:17:57;101366.16;;;12.05;80.62
25759;BME280;13604;52.496;13.456;2023-06-14T00:20:26;101357.06;;;11.96;82.22
25759;BME280;13604;52.496;13.456;2023-06-14T00:22:52;101399.66;;;12.13;81.99
25759;BME280;13604;52.496;13.456;2023-06-14T00:25:19;101385.31;;;12.05;82.87
25759;BME280;13604;52.496;13.456;2023-06-14T00:27:44;101406.72;;;11.98;83.01
25759;BME280;13604;52.496;13.456;2023-06-14T00:30:10;101368.31;;;11.79;83.46
25759;BME280;13604;52.496;13.456;2023-06-14T00:32:35;101400.31;;;11.91;84.66
25759;BME280;13604;52.496;13.456;2023-06-14T00:35:01;101385.25;;;11.87;85.07
25759;BME280;13604;52.496;13.456;2023-06-14T00:37:26;101374.38;;;11.78;85.05
25759;BME280;13604;52.496;13.456;2023-06-14T00:39:51;101397.59;;;11.90;85.14
25759;BME280;13604;52.496;13.456;2023-06-14T00:42:24;101362.66;;;11.70;85.70
25759;BME280;13604;52.496;13.456;2023-06-14T00:44:50;101374.06;;;11.72;86.14
25759;BME280;13604;52.496;13.456;2023-06-14T00:47:15;101368.53;;;11.66;85.71
25759;BME280;13604;52.496;13.456;2023-06-14T00:49:41;101374.66;;;11.66;86.57
25759;BME280;13604;52.496;13.456;2023-06-14T00:52:08;101396.94;;;11.77;87.01
25759;BME280;13604;52.496;13.456;2023-06-14T00:54:40;101388.00;;;11.72;87.77
25759;BME280;13604;52.496;13.456;2023-06-14T00:57:06;101383.03;;;11.77;87.63
25759;BME280;13604;52.496;13.456;2023-06-14T00:59:33;101349.66;;;11.53;88.19
25759;BME280;13604;52.496;13.456;2023-06-14T01:01:58;101330.00;;;11.26;88.48
25759;BME280;13604;52.496;13.456;2023-06-14T01:04:23;101403.63;;;11.89;89.27
25759;BME280;13604;52.496;13.456;2023-06-14T01:15:15;101361.38;;;11.62;89.37
25759;BME280;13604;52.496;13.456;2023-06-14T01:17:41;101391.44;;;11.71;89.56
25759;BME280;13604;52.496;13.456;2023-06-14T01:20:11;101375.31;;;11.62;89.78
25759;BME280;13604;52.496;13.456;2023-06-14T01:22:51;101375.00;;;11.56;90.65
25759;BME280;13604;52.496;13.456;2023-06-14T01:25:17;101345.69;;;11.44;90.27
25759;BME280;13604;52.496;13.456;2023-06-14T01:27:46;101358.97;;;11.48;90.91
25759;BME280;13604;52.496;13.456;2023-06-14T01:30:13;101372.97;;;11.50;91.25
25759;BME280;13604;52.496;13.456;2023-06-14T01:32:39;101406.94;;;11.68;91.20
25759;BME280;13604;52.496;13.456;2023-06-14T01:35:05;101397.97;;;11.63;91.43
25759;BME280;13604;52.496;13.456;2023-06-14T01:37:31;101351.53;;;11.39;91.84
25759;BME280;13604;52.496;13.456;2023-06-14T01:39:57;101405.50;;;11.57;92.08
25759;BME280;13604;52.496;13.456;2023-06-14T01:42:23;101401.00;;;11.54;92.89
25759;BME280;13604;52.496;13.456;2023-06-14T01:44:49;101378.03;;;11.47;93.00
25759;BME280;13604;52.496;13.456;2023-06-14T01:47:16;101323.16;;;11.11;92.77
25759;BME280;13604;52.496;13.456;2023-06-14T01:49:42;101366.56;;;11.27;92.82
25759;BME280;13604;52.496;13.456;2023-06-14T01:52:07;101371.88;;;11.29;92.75
25759;BME280;13604;52.496;13.456;2023-06-14T01:54:35;101413.81;;;11.50;93.12
25759;BME280;13604;52.496;13.456;2023-06-14T01:57:03;101402.97;;;11.42;93.81
25759;BME280;13604;52.496;13.456;2023-06-14T01:59:29;101373.56;;;11.12;93.88
25759;BME280;13604;52.496;13.456;2023-06-14T02:01:56;101341.75;;;11.01;93.97
25759;BME280;13604;52.496;13.456;2023-06-14T02:04:21;101389.72;;;11.21;94.32
25759;BME280;13604;52.496;13.456;2023-06-14T02:06:46;101376.84;;;11.08;94.77
25759;BME280;13604;52.496;13.456;2023-06-14T02:09:12;101351.75;;;10.93;95.50
25759;BME280;13604;52.496;13.456;2023-06-14T02:11:37;101369.91;;;11.08;96.44
25759;BME280;13604;52.496;13.456;2023-06-14T02:14:02;101397.44;;;11.19;96.56
25759;BME280;13604;52.496;13.456;2023-06-14T02:16:28;101341.06;;;10.89;96.27
25759;BME280;13604;52.496;13.456;2023-06-14T02:18:54;101409.94;;;11.25;97.36
25759;BME280;13604;52.496;13.456;2023-06-14T02:21:20;101389.88;;;11.08;97.68
25759;BME280;13604;52.496;13.456;2023-06-14T02:23:47;101416.91;;;11.26;97.99
25759;BME280;13604;52.496;13.456;2023-06-14T02:26:13;101414.31;;;11.26;97.42
25759;BME280;13604;52.496;13.456;2023-06-14T02:28:38;101410.56;;;11.21;97.85
25759;BME280;13604;52.496;13.456;2023-06-14T02:31:03;101411.94;;;11.31;98.07
25759;BME280;13604;52.496;13.456;2023-06-14T02:33:28;101396.81;;;11.23;97.65
25759;BME280;13604;52.496;13.456;2023-06-14T02:35:54;101410.91;;;11.27;97.59
25759;BME280;13604;52.496;13.456;2023-06-14T02:38:19;101395.50;;;11.15;97.77
25759;BME280;13604;52.496;13.456;2023-06-14T02:40:44;101417.25;;;11.32;97.28
25759;BME280;13604;52.496;13.456;2023-06-14T02:43:10;101415.59;;;11.34;97.05
25759;BME280;13604;52.496;13.456;2023-06-14T02:45:35;101398.28;;;11.18;97.41
25759;BME280;13604;52.496;13.456;2023-06-14T02:48:00;101410.81;;;11.26;97.44
25759;BME280;13604;52.496;13.456;2023-06-14T02:50:26;101411.63;;;11.24;97.75
25759;BME280;13604;52.496;13.456;2023-06-14T02:52:53;101411.38;;;11.20;98.22
25759;BME280;13604;52.496;13.456;2023-06-14T02:55:21;101410.91;;;11.27;97.77
25759;BME280;13604;52.496;13.456;2023-06-14T02:57:46;101415.34;;;11.30;97.68
25759;BME280;13604;52.496;13.456;2023-06-14T03:00:13;101400.47;;;11.27;97.54
25759;BME280;13604;52.496;13.456;2023-06-14T03:02:38;101388.66;;;11.17;97.23
25759;BME280;13604;52.496;13.456;2023-06-14T03:05:04;101420.03;;;11.35;97.12
25759;BME280;13604;52.496;13.456;2023-06-14T03:07:31;101359.56;;;11.10;97.33
25759;BME280;13604;52.496;13.456;2023-06-14T03:09:57;101414.72;;;11.34;97.74
25759;BME280;13604;52.496;13.456;2023-06-14T03:12:23;101414.56;;;11.31;98.28
25759;BME280;13604;52.496;13.456;2023-06-14T03:14:48;101393.38;;;11.24;97.90
25759;BME280;13604;52.496;13.456;2023-06-14T03:17:16;101385.00;;;11.14;98.19
25759;BME280;13604;52.496;13.456;2023-06-14T03:19:42;101385.25;;;11.18;98.21
25759;BME280;13604;52.496;13.456;2023-06-14T03:22:07;101417.09;;;11.29;98.65
25759;BME280;13604;52.496;13.456;2023-06-14T03:24:33;101360.16;;;11.04;98.23
25759;BME280;13604;52.496;13.456;2023-06-14T03:27:02;101390.50;;;11.20;98.27
25759;BME280;13604;52.496;13.456;2023-06-14T03:29:27;101368.44;;;11.13;97.80
25759;BME280;13604;52.496;13.456;2023-06-14T03:32:03;101374.56;;;11.14;98.19
25759;BME280;13604;52.496;13.456;2023-06-14T03:34:28;101397.03;;;11.28;98.28
25759;BME280;13604;52.496;13.456;2023-06-14T03:36:53;101404.28;;;11.34;97.88
25759;BME280;13604;52.496;13.456;2023-06-14T03:39:20;101359.72;;;10.96;97.94
25759;BME280;13604;52.496;13.456;2023-06-14T03:41:45;101363.91;;;11.09;97.74
25759;BME280;13604;52.496;13.456;2023-06-14T03:44:11;101420.19;;;11.38;98.01
25759;BME280;13604;52.496;13.456;2023-06-14T03:46:36;101386.47;;;11.25;97.99
25759;BME280;13604;52.496;13.456;2023-06-14T03:49:01;101396.91;;;11.25;97.03
25759;BME280;13604;52.496;13.456;2023-06-14T03:51:28;101375.94;;;11.23;97.00
25759;BME280;13604;52.496;13.456;2023-06-14T03:53:54;101371.28;;;11.18;97.09
25759;BME280;13604;52.496;13.456;2023-06-14T03:56:20;101373.09;;;11.19;97.01
25759;BME280;13604;52.496;13.456;2023-06-14T03:58:46;101367.28;;;11.24;97.16
25759;BME280;13604;52.496;13.456;2023-06-14T04:01:11;101378.06;;;11.31;97.11
25759;BME280;13604;52.496;13.456;2023-06-14T04:03:37;101442.38;;;11.81;96.63
25759;BME280;13604;52.496;13.456;2023-06-14T04:06:04;101397.97;;;11.63;96.37
25759;BME280;13604;52.496;13.456;2023-06-14T04:08:30;101448.13;;;12.08;95.41
25759;BME280;13604;52.496;13.456;2023-06-14T04:10:56;101361.69;;;11.68;93.44
25759;BME280;13604;52.496;13.456;2023-06-14T04:13:21;101403.31;;;11.99;93.03
25759;BME280;13604;52.496;13.456;2023-06-14T04:15:46;101441.81;;;12.21;91.90
25759;BME280;13604;52.496;13.456;2023-06-14T04:18:12;101454.16;;;12.42;91.71
25759;BME280;13604;52.496;13.456;2023-06-14T04:20:38;101388.09;;;12.08;91.41
25759;BME280;13604;52.496;13.456;2023-06-14T04:23:14;101411.13;;;12.35;91.34
25759;BME280;13604;52.496;13.456;2023-06-14T04:25:40;101432.88;;;12.52;90.54
25759;BME280;13604;52.496;13.456;2023-06-14T04:28:06;101427.88;;;12.57;90.11
25759;BME280;13604;52.496;13.456;2023-06-14T04:30:34;101418.16;;;12.54;90.07
25759;BME280;13604;52.496;13.456;2023-06-14T04:33:01;101426.53;;;12.65;89.17
25759;BME280;13604;52.496;13.456;2023-06-14T04:35:26;101450.28;;;12.89;88.53
25759;BME280;13604;52.496;13.456;2023-06-14T04:37:54;101447.75;;;12.91;87.64
25759;BME280;13604;52.496;13.456;2023-06-14T04:40:20;101446.34;;;13.17;87.02
25759;BME280;13604;52.496;13.456;2023-06-14T04:42:45;101419.56;;;13.03;86.52
25759;BME280;13604;52.496;13.456;2023-06-14T04:45:12;101443.13;;;13.22;86.02
25759;BME280;13604;52.496;13.456;2023-06-14T04:47:39;101414.88;;;13.15;85.58
25759;BME280;13604;52.496;13.456;2023-06-14T04:50:05;101418.22;;;13.31;84.45
25759;BME280;13604;52.496;13.456;2023-06-14T04:52:32;101453.34;;;13.55;84.09
25759;BME280;13604;52.496;13.456;2023-06-14T04:54:58;101442.09;;;13.58;82.57
25759;BME280;13604;52.496;13.456;2023-06-14T04:57:24;101372.13;;;13.33;82.34
25759;BME280;13604;52.496;13.456;2023-06-14T04:59:50;101351.25;;;13.34;81.97
25759;BME280;13604;52.496;13.456;2023-06-14T05:02:23;101453.47;;;13.99;80.83
25759;BME280;13604;52.496;13.456;2023-06-14T05:04:50;101445.69;;;14.01;80.28
25759;BME280;13604;52.496;13.456;2023-06-14T05:07:15;101442.31;;;14.03;80.23
25759;BME280;13604;52.496;13.456;2023-06-14T05:09:41;101431.03;;;13.85;80.68
25759;BME280;13604;52.496;13.456;2023-06-14T05:12:06;101433.59;;;13.83;80.81
25759;BME280;13604;52.496;13.456;2023-06-14T05:14:35;101444.53;;;13.94;80.73
25759;BME280;13604;52.496;13.456;2023-06-14T05:17:00;101445.63;;;13.99;80.10
25759;BME280;13604;52.496;13.456;2023-06-14T05:19:25;101424.88;;;14.25;79.18
25759;BME280;13604;52.496;13.456;2023-06-14T05:21:51;101462.63;;;14.72;78.42
25759;BME280;13604;52.496;13.456;2023-06-14T05:24:18;101447.06;;;14.99;77.10
25759;BME280;13604;52.496;13.456;2023-06-14T05:26:43;101436.63;;;15.01;75.35
25759;BME280;13604;52.496;13.456;2023-06-14T05:29:08;101471.88;;;15.32;74.32
25759;BME280;13604;52.496;13.456;2023-06-14T05:31:34;101468.13;;;15.49;73.76
25759;BME280;13604;52.496;13.456;2023-06-14T05:33:59;101473.16;;;15.67;73.71
25759;BME280;13604;52.496;13.456;2023-06-14T05:36:24;101442.47;;;15.64;72.26
25759;BME280;13604;52.496;13.456;2023-06-14T05:38:51;101474.34;;;15.99;71.70
25759;BME280;13604;52.496;13.456;2023-06-14T05:41:22;101448.56;;;15.88;70.70
25759;BME280;13604;52.496;13.456;2023-06-14T05:43:47;101474.22;;;15.96;70.15
25759;BME280;13604;52.496;13.456;2023-06-14T05:46:15;101456.72;;;15.97;70.10
25759;BME280;13604;52.496;13.456;2023-06-14T05:48:41;101442.09;;;15.78;70.22
25759;BME280;13604;52.496;13.456;2023-06-14T05:51:07;101459.22;;;15.92;70.08
25759;BME280;13604;52.496;13.456;2023-06-14T05:53:34;101468.38;;;16.04;70.23
25759;BME280;13604;52.496;13.456;2023-06-14T05:56:00;101500.63;;;15.99;70.20
25759;BME280;13604;52.496;13.456;2023-06-14T05:58:26;101481.00;;;15.90;70.11
25759;BME280;13604;52.496;13.456;2023-06-14T06:00:51;101395.91;;;15.35;70.22
25759;BME280;13604;52.496;13.456;2023-06-14T06:03:18;101456.69;;;15.71;70.45
25759;BME280;13604;52.496;13.456;2023-06-14T06:05:44;101442.06;;;15.54;70.58
25759;BME280;13604;52.496;13.456;2023-06-14T06:08:09;101452.09;;;15.65;70.75
25759;BME280;13604;52.496;13.456;2023-06-14T06:10:34;101344.00;;;15.02;70.93
25759;BME280;13604;52.496;13.456;2023-06-14T06:13:00;101490.69;;;15.91;70.97
25759;BME280;13604;52.496;13.456;2023-06-14T06:15:25;101460.25;;;15.73;70.88
25759;BME280;13604;52.496;13.456;2023-06-14T06:17:51;101373.09;;;15.34;70.96
25759;BME280;13604;52.496;13.456;2023-06-14T06:20:16;101482.53;;;15.83;70.80
25759;BME280;13604;52.496;13.456;2023-06-14T06:22:42;101451.38;;;15.70;70.43
25759;BME280;13604;52.496;13.456;2023-06-14T06:25:08;101422.56;;;15.47;71.29
25759;BME280;13604;52.496;13.456;2023-06-14T06:27:33;101400.81;;;15.50;70.66
25759;BME280;13604;52.496;13.456;2023-06-14T06:29:59;101415.25;;;15.62;70.61
25759;BME280;13604;52.496;13.456;2023-06-14T06:32:24;101433.88;;;15.70;70.28
25759;BME280;13604;52.496;13.456;2023-06-14T06:34:50;101423.44;;;15.46;70.70
25759;BME280;13604;52.496;13.456;2023-06-14T06:37:15;101490.69;;;15.91;71.45
25759;BME280;13604;52.496;13.456;2023-06-14T06:39:40;101446.03;;;15.67;71.50
25759;BME280;13604;52.496;13.456;2023-06-14T06:42:06;101455.22;;;15.78;71.68
25759;BME280;13604;52.496;13.456;2023-06-14T06:44:32;101404.03;;;15.42;71.46
25759;BME280;13604;52.496;13.456;2023-06-14T06:46:57;101477.56;;;15.91;70.81
25759;BME280;13604;52.496;13.456;2023-06-14T06:49:23;101465.88;;;16.08;70.88
25759;BME280;13604;52.496;13.456;2023-06-14T06:52:04;101493.13;;;16.63;69.34
25759;BME280;13604;52.496;13.456;2023-06-14T06:54:30;101419.84;;;16.47;68.11
25759;BME280;13604;52.496;13.456;2023-06-14T06:56:55;101447.19;;;16.81;67.12
25759;BME280;13604;52.496;13.456;2023-06-14T06:59:21;101447.50;;;17.20;65.57
25759;BME280;13604;52.496;13.456;2023-06-14T07:01:46;101398.06;;;17.08;64.55
25759;BME280;13604;52.496;13.456;2023-06-14T07:04:12;101501.09;;;18.15;63.11
25759;BME280;13604;52.496;13.456;2023-06-14T07:06:38;101462.31;;;18.09;62.14
25759;BME280;13604;52.496;13.456;2023-06-14T07:09:03;101425.41;;;18.11;60.61
25759;BME280;13604;52.496;13.456;2023-06-14T07:11:30;101506.41;;;18.88;60.01
25759;BME280;13604;52.496;13.456;2023-06-14T07:13:55;101377.44;;;18.24;59.13
25759;BME280;13604;52.496;13.456;2023-06-14T07:16:21;101451.75;;;18.82;57.98
25759;BME280;13604;52.496;13.456;2023-06-14T07:18:46;101438.88;;;18.96;57.08
25759;BME280;13604;52.496;13.456;2023-06-14T07:21:12;101422.69;;;18.81;57.45
25759;BME280;13604;52.496;13.456;2023-06-14T07:23:37;101408.00;;;18.92;56.80
25759;BME280;13604;52.496;13.456;2023-06-14T07:26:02;101418.19;;;19.16;55.35
25759;BME280;13604;52.496;13.456;2023-06-14T07:28:30;101430.66;;;19.23;55.27
25759;BME280;13604;52.496;13.456;2023-06-14T07:30:56;101497.09;;;19.88;54.70
25759;BME280;13604;52.496;13.456;2023-06-14T07:33:21;101451.16;;;19.79;54.22
25759;BME280;13604;52.496;13.456;2023-06-14T07:35:46;101453.66;;;20.22;53.51
25759;BME280;13604;52.496;13.456;2023-06-14T07:38:13;101542.97;;;20.89;53.45
25759;BME280;13604;52.496;13.456;2023-06-14T07:40:38;101462.13;;;20.57;52.10
25759;BME280;13604;52.496;13.456;2023-06-14T07:43:05;101410.31;;;20.14;51.85
25759;BME280;13604;52.496;13.456;2023-06-14T07:45:30;101526.72;;;20.67;52.74
25759;BME280;13604;52.496;13.456;2023-06-14T07:47:57;101502.19;;;20.26;52.96
25759;BME280;13604;52.496;13.456;2023-06-14T07:50:22;101526.25;;;20.41;53.17
25759;BME280;13604;52.496;13.456;2023-06-14T07:52:48;101510.91;;;20.70;53.47
25759;BME280;13604;52.496;13.456;2023-06-14T07:55:14;101498.66;;;20.78;52.19
25759;BME280;13604;52.496;13.456;2023-06-14T07:57:40;101513.09;;;20.99;51.56
25759;BME280;13604;52.496;13.456;2023-06-14T08:00:06;101448.28;;;20.71;51.64
25759;BME280;13604;52.496;13.456;2023-06-14T08:02:32;101518.78;;;21.27;51.38
25759;BME280;13604;52.496;13.456;2023-06-14T08:04:57;101524.84;;;21.20;51.54
25759;BME280;13604;52.496;13.456;2023-06-14T08:07:23;101511.00;;;21.41;50.67
25759;BME280;13604;52.496;13.456;2023-06-14T08:09:49;101501.28;;;21.40;50.58
25759;BME280;13604;52.496;13.456;2023-06-14T08:12:14;101456.31;;;21.46;50.69
25759;BME280;13604;52.496;13.456;2023-06-14T08:14:42;101411.13;;;21.32;49.54
25759;BME280;13604;52.496;13.456;2023-06-14T08:17:07;101505.75;;;22.20;48.94
25759;BME280;13604;52.496;13.456;2023-06-14T08:19:32;101382.94;;;21.39;48.75
25759;BME280;13604;52.496;13.456;2023-06-14T08:21:58;101506.50;;;22.10;49.04
25759;BME280;13604;52.496;13.456;2023-06-14T08:24:23;101416.88;;;21.72;48.64
25759;BME280;13604;52.496;13.456;2023-06-14T08:26:54;101441.72;;;21.82;47.79
25759;BME280;13604;52.496;13.456;2023-06-14T08:29:20;101445.59;;;22.19;47.73
25759;BME280;13604;52.496;13.456;2023-06-14T08:31:46;101415.78;;;22.53;46.09
25759;BME280;13604;52.496;13.456;2023-06-14T08:34:11;101464.69;;;22.89;45.23
25759;BME280;13604;52.496;13.456;2023-06-14T08:36:36;101382.94;;;22.31;45.63
25759;BME280;13604;52.496;13.456;2023-06-14T08:39:02;101473.81;;;22.10;46.96
25759;BME280;13604;52.496;13.456;2023-06-14T08:41:28;101483.16;;;21.72;46.95
25759;BME280;13604;52.496;13.456;2023-06-14T08:43:55;101471.63;;;21.70;46.69
25759;BME280;13604;52.496;13.456;2023-06-14T08:46:20;101486.44;;;21.53;47.37
25759;BME280;13604;52.496;13.456;2023-06-14T08:48:51;101500.41;;;21.41;47.29
25759;BME280;13604;52.496;13.456;2023-06-14T08:51:22;101473.22;;;21.54;47.34
25759;BME280;13604;52.496;13.456;2023-06-14T08:53:54;101417.28;;;21.31;46.96
25759;BME280;13604;52.496;13.456;2023-06-14T08:56:26;101449.56;;;21.69;46.78
25759;BME280;13604;52.496;13.456;2023-06-14T08:58:54;101445.56;;;22.16;46.20
25759;BME280;13604;52.496;13.456;2023-06-14T09:01:20;101513.28;;;22.75;45.14
25759;BME280;13604;52.496;13.456;2023-06-14T09:03:47;101500.88;;;22.73;45.00
25759;BME280;13604;52.496;13.456;2023-06-14T09:06:13;101469.13;;;22.96;44.56
25759;BME280;13604;52.496;13.456;2023-06-14T09:08:46;101488.00;;;23.39;43.85
25759;BME280;13604;52.496;13.456;2023-06-14T09:11:14;101353.13;;;22.78;43.79
25759;BME280;13604;52.496;13.456;2023-06-14T09:13:41;101518.22;;;23.66;43.27
25759;BME280;13604;52.496;13.456;2023-06-14T09:16:07;101514.78;;;23.85;43.22
25759;BME280;13604;52.496;13.456;2023-06-14T09:18:41;101516.59;;;24.10;43.05
25759;BME280;13604;52.496;13.456;2023-06-14T09:21:08;101520.84;;;23.58;42.89
25759;BME280;13604;52.496;13.456;2023-06-14T09:23:41;101434.63;;;22.91;42.81
25759;BME280;13604;52.496;13.456;2023-06-14T09:26:11;101510.97;;;23.26;42.97
25759;BME280;13604;52.496;13.456;2023-06-14T09:28:43;101466.44;;;22.85;43.87
25759;BME280;13604;52.496;13.456;2023-06-14T09:31:13;101487.53;;;22.60;43.12
25759;BME280;13604;52.496;13.456;2023-06-14T09:33:42;101524.31;;;22.20;44.72
25759;BME280;13604;52.496;13.456;2023-06-14T09:36:12;101516.34;;;22.19;45.18
25759;BME280;13604;52.496;13.456;2023-06-14T09:38:40;101480.31;;;22.44;45.06
25759;BME280;13604;52.496;13.456;2023-06-14T09:41:05;101476.00;;;22.55;44.71
25759;BME280;13604;52.496;13.456;2023-06-14T09:43:31;101447.00;;;22.94;43.04
25759;BME280;13604;52.496;13.456;2023-06-14T09:46:00;101516.44;;;23.66;42.50
25759;BME280;13604;52.496;13.456;2023-06-14T09:48:26;101513.75;;;23.54;43.02
25759;BME280;13604;52.496;13.456;2023-06-14T09:50:51;101489.63;;;23.09;42.00
25759;BME280;13604;52.496;13.456;2023-06-14T09:53:23;101431.06;;;22.86;42.33
25759;BME280;13604;52.496;13.456;2023-06-14T09:55:49;101526.13;;;23.44;42.76
25759;BME280;13604;52.496;13.456;2023-06-14T09:58:16;101509.97;;;23.07;43.28
25759;BME280;13604;52.496;13.456;2023-06-14T10:00:43;101474.59;;;23.13;42.75
25759;BME280;13604;52.496;13.456;2023-06-14T10:03:16;101457.50;;;22.72;42.98
25759;BME280;13604;52.496;13.456;2023-06-14T10:05:46;101417.53;;;22.49;43.12
25759;BME280;13604;52.496;13.456;2023-06-14T10:08:14;101400.38;;;22.07;42.80
25759;BME280;13604;52.496;13.456;2023-06-14T10:10:42;101444.00;;;22.40;43.58
25759;BME280;13604;52.496;13.456;2023-06-14T10:13:07;101510.75;;;22.94;43.37
25759;BME280;13604;52.496;13.456;2023-06-14T10:15:41;101414.00;;;22.47;43.31
25759;BME280;13604;52.496;13.456;2023-06-14T10:18:19;101368.84;;;22.42;43.33
25759;BME280;13604;52.496;13.456;2023-06-14T10:23:41;101384.03;;;22.64;42.73
25759;BME280;13604;52.496;13.456;2023-06-14T10:26:08;101490.34;;;22.85;43.12
25759;BME280;13604;52.496;13.456;2023-06-14T10:28:37;101467.59;;;22.08;44.34
25759;BME280;13604;52.496;13.456;2023-06-14T10:34:01;101506.31;;;21.90;45.25
25759;BME280;13604;52.496;13.456;2023-06-14T10:36:31;101505.47;;;21.93;44.78
25759;BME280;13604;52.496;13.456;2023-06-14T10:39:08;101501.13;;;21.99;45.02
25759;BME280;13604;52.496;13.456;2023-06-14T10:41:36;101451.13;;;21.52;45.50
25759;BME280;13604;52.496;13.456;2023-06-14T10:46:58;101385.50;;;21.32;44.83
25759;BME280;13604;52.496;13.456;2023-06-14T10:52:16;101383.31;;;21.74;44.55
25759;BME280;13604;52.496;13.456;2023-06-14T10:57:44;101378.09;;;21.83;44.34
25759;BME280;13604;52.496;13.456;2023-06-14T11:00:17;101353.59;;;22.17;43.65
25759;BME280;13604;52.496;13.456;2023-06-14T11:02:50;101483.28;;;22.90;42.92
25759;BME280;13604;52.496;13.456;2023-06-14T11:05:23;101486.09;;;23.13;43.09
25759;BME280;13604;52.496;13.456;2023-06-14T11:08:09;101485.38;;;23.53;42.00
25759;BME280;13604;52.496;13.456;2023-06-14T11:10:40;101482.66;;;23.34;41.96
25759;BME280;13604;52.496;13.456;2023-06-14T11:13:07;101467.66;;;23.46;41.08
25759;BME280;13604;52.496;13.456;2023-06-14T11:15:34;101381.69;;;23.38;40.26
25759;BME280;13604;52.496;13.456;2023-06-14T11:18:03;101473.13;;;24.38;40.30
25759;BME280;13604;52.496;13.456;2023-06-14T11:20:31;101366.69;;;24.26;39.24
25759;BME280;13604;52.496;13.456;2023-06-14T11:22:57;101453.31;;;25.52;37.77
25759;BME280;13604;52.496;13.456;2023-06-14T11:25:22;101437.81;;;26.11;37.04
25759;BME280;13604;52.496;13.456;2023-06-14T11:27:51;101418.97;;;26.28;35.73
25759;BME280;13604;52.496;13.456;2023-06-14T11:30:17;101550.72;;;27.25;35.50
25759;BME280;13604;52.496;13.456;2023-06-14T11:32:46;101441.03;;;27.34;35.02
25759;BME280;13604;52.496;13.456;2023-06-14T11:35:11;101428.63;;;27.89;34.28
25759;BME280;13604;52.496;13.456;2023-06-14T11:37:37;101459.44;;;28.16;33.53
25759;BME280;13604;52.496;13.456;2023-06-14T11:40:04;101381.66;;;27.68;33.71
25759;BME280;13604;52.496;13.456;2023-06-14T11:42:39;101440.88;;;28.05;33.31
25759;BME280;13604;52.496;13.456;2023-06-14T11:45:09;101449.09;;;27.95;32.75
25759;BME280;13604;52.496;13.456;2023-06-14T11:47:37;101440.31;;;27.83;32.96
25759;BME280;13604;52.496;13.456;2023-06-14T11:50:04;101385.78;;;27.31;32.84
25759;BME280;13604;52.496;13.456;2023-06-14T11:52:31;101411.75;;;27.20;33.30
25759;BME280;13604;52.496;13.456;2023-06-14T11:54:58;101435.00;;;27.13;33.24
25759;BME280;13604;52.496;13.456;2023-06-14T11:57:24;101414.88;;;27.54;32.64
25759;BME280;13604;52.496;13.456;2023-06-14T11:59:50;101385.75;;;27.94;31.74
25759;BME280;13604;52.496;13.456;2023-06-14T12:02:19;101366.94;;;28.46;30.75
25759;BME280;13604;52.496;13.456;2023-06-14T12:04:48;101422.06;;;29.47;29.50
25759;BME280;13604;52.496;13.456;2023-06-14T12:07:15;101417.47;;;30.93;28.50
25759;BME280;13604;52.496;13.456;2023-06-14T12:12:16;101366.78;;;34.67;24.14
25759;BME280;13604;52.496;13.456;2023-06-14T12:14:41;101315.00;;;34.76;22.79
25759;BME280;13604;52.496;13.456;2023-06-14T12:17:07;101329.63;;;36.18;22.32
25759;BME280;13604;52.496;13.456;2023-06-14T12:19:44;101346.16;;;38.65;20.54
25759;BME280;13604;52.496;13.456;2023-06-14T12:22:11;101383.47;;;40.16;18.04
25759;BME280;13604;52.496;13.456;2023-06-14T12:24:37;101373.88;;;40.36;17.96
25759;BME280;13604;52.496;13.456;2023-06-14T12:27:03;101392.06;;;39.82;18.43
25759;BME280;13604;52.496;13.456;2023-06-14T12:29:30;101387.53;;;39.41;17.92
25759;BME280;13604;52.496;13.456;2023-06-14T12:31:55;101339.97;;;39.87;17.77
25759;BME280;13604;52.496;13.456;2023-06-14T12:34:23;101392.50;;;41.06;16.56
25759;BME280;13604;52.496;13.456;2023-06-14T12:36:50;101334.31;;;39.90;16.76
25759;BME280;13604;52.496;13.456;2023-06-14T12:39:15;101369.25;;;41.37;16.55
25759;BME280;13604;52.496;13.456;2023-06-14T12:41:40;101372.28;;;41.46;16.00
25759;BME280;13604;52.496;13.456;2023-06-14T12:44:07;101387.75;;;41.34;15.33
25759;BME280;13604;52.496;13.456;2023-06-14T12:46:33;101370.84;;;42.35;15.95
25759;BME280;13604;52.496;13.456;2023-06-14T12:48:58;101378.22;;;40.77;15.91
25759;BME280;13604;52.496;13.456;2023-06-14T12:51:23;101367.88;;;42.38;15.98
25759;BME280;13604;52.496;13.456;2023-06-14T12:53:50;101360.66;;;43.60;14.51
25759;BME280;13604;52.496;13.456;2023-06-14T12:56:15;101324.72;;;44.17;13.75
25759;BME280;13604;52.496;13.456;2023-06-14T12:58:41;101379.06;;;43.69;13.70
25759;BME280;13604;52.496;13.456;2023-06-14T13:01:07;101384.50;;;44.65;13.56
25759;BME280;13604;52.496;13.456;2023-06-14T13:03:32;101348.63;;;44.15;13.63